Time;durP1;ratioP1;P1;durP2;ratioP2;P2;SDS_P1;SDS_P2;PMS_P1;PMS_P2;Temp;Humidity;BMP_temperature;BMP_pressure;BME280_temperature;BME280_humidity;BME280_pressure;Samples;Min_cycle;Max_cycle;Signal;HPM_P1;HPM_P2
2022/05/19 00:02:17;;;;;;;20.65;17.80;;;;;;;20.80;93.91;101646.91;6373091;23;20016;-67
2022/05/19 00:04:49;;;;;;;18.83;16.50;;;;;;;20.81;94.31;101648.53;6350213;23;20347;-71
2022/05/19 00:07:21;;;;;;;22.77;17.93;;;;;;;20.84;94.22;101641.03;6343784;23;20002;-67
2022/05/19 00:09:52;;;;;;;19.05;16.98;;;;;;;20.78;93.74;101627.59;6342078;23;20002;-69
2022/05/19 00:12:23;;;;;;;21.30;19.00;;;;;;;20.74;95.22;101631.63;6343360;23;20007;-67
2022/05/19 00:14:56;;;;;;;25.47;17.00;;;;;;;20.68;95.34;101616.34;6342260;23;20065;-69
2022/05/19 00:17:27;;;;;;;25.35;18.80;;;;;;;20.66;95.78;101611.19;6343165;23;20021;-68
2022/05/19 00:19:58;;;;;;;20.67;18.57;;;;;;;20.73;95.77;101616.66;6342060;23;20010;-67
2022/05/19 00:22:30;;;;;;;20.43;18.20;;;;;;;20.71;95.86;101619.47;6342938;23;20010;-69
2022/05/19 00:25:01;;;;;;;21.40;18.10;;;;;;;20.70;95.90;101617.81;6316042;23;20010;-67
2022/05/19 00:27:32;;;;;;;21.63;18.07;;;;;;;20.69;95.66;101620.69;6343655;23;20086;-71
2022/05/19 00:30:04;;;;;;;21.57;18.13;;;;;;;20.64;96.77;101616.69;6343506;23;20014;-68
2022/05/19 00:32:35;;;;;;;20.70;17.90;;;;;;;20.59;97.26;101618.25;6343388;23;20038;-68
2022/05/19 00:35:08;;;;;;;21.30;17.73;;;;;;;20.61;97.33;101605.59;6342759;23;20030;-72
2022/05/19 00:37:39;;;;;;;22.50;17.70;;;;;;;20.58;96.66;101606.75;6342912;23;20002;-68
2022/05/19 00:40:11;;;;;;;20.57;18.13;;;;;;;20.54;98.44;101604.63;6343209;23;20017;-68
2022/05/19 00:42:45;;;;;;;21.08;18.35;;;;;;;20.58;98.06;101609.44;6343495;23;20454;-67
2022/05/19 00:45:33;;;;;;;19.92;17.70;;;;;;;20.63;97.64;101598.25;6342958;23;20446;-68
2022/05/19 00:48:14;;;;;;;20.48;17.88;;;;;;;20.59;98.43;101602.25;6342642;23;20323;-70
2022/05/19 00:50:52;;;;;;;23.52;19.02;;;;;;;20.50;98.86;101596.19;6342972;23;20027;-69
2022/05/19 00:53:35;;;;;;;20.63;18.00;;;;;;;20.57;98.64;101596.28;6342489;23;20015;-69
2022/05/19 00:56:28;;;;;;;22.75;19.90;;;;;;;20.59;97.85;101581.78;6341577;23;20030;-67
2022/05/19 00:59:07;;;;;;;23.35;20.95;;;;;;;20.34;100.00;101577.59;6341719;23;20013;-66
2022/05/19 01:01:42;;;;;;;25.05;19.27;;;;;;;20.28;100.00;101581.81;6343506;23;20020;-67
2022/05/19 01:04:23;;;;;;;24.02;19.60;;;;;;;20.35;100.00;101573.97;6342427;23;20023;-66
2022/05/19 01:06:58;;;;;;;23.35;19.35;;;;;;;20.23;100.00;101570.03;6341792;23;20070;-70
2022/05/19 01:09:34;;;;;;;22.20;19.80;;;;;;;20.16;100.00;101570.75;6343414;23;20010;-67
2022/05/19 01:12:07;;;;;;;27.88;21.40;;;;;;;20.19;100.00;101561.56;6342793;23;20587;-67
2022/05/19 01:14:39;;;;;;;25.80;20.23;;;;;;;20.18;100.00;101563.41;6342523;23;20030;-67
2022/05/19 01:17:10;;;;;;;22.43;20.13;;;;;;;20.15;100.00;101566.44;6342807;23;20006;-70
2022/05/19 01:19:53;;;;;;;23.40;20.37;;;;;;;20.16;100.00;101560.09;6342960;23;20014;-68
2022/05/19 01:22:40;;;;;;;26.60;20.20;;;;;;;20.11;100.00;101558.97;6343118;23;20014;-67
2022/05/19 01:25:25;;;;;;;22.67;20.30;;;;;;;20.07;100.00;101558.47;6341947;23;20486;-70
2022/05/19 01:27:57;;;;;;;22.40;20.05;;;;;;;19.89;100.00;101540.16;6342019;23;20011;-70
2022/05/19 01:30:28;;;;;;;24.33;20.60;;;;;;;19.96;100.00;101548.22;6342615;23;20156;-68
2022/05/19 01:33:00;;;;;;;23.63;19.77;;;;;;;19.92;100.00;101546.91;6342945;23;20033;-68
2022/05/19 01:35:33;;;;;;;22.67;19.67;;;;;;;19.95;100.00;101532.47;6342906;23;20006;-67
2022/05/19 01:38:14;;;;;;;24.95;19.38;;;;;;;19.98;100.00;101524.13;6340342;23;20070;-67
2022/05/19 01:41:04;;;;;;;25.05;20.20;;;;;;;19.84;100.00;101528.34;6342218;23;20007;-69
2022/05/19 01:44:09;;;;;;;25.50;19.88;;;;;;;20.07;100.00;101528.38;6342714;23;20387;-69
2022/05/19 01:46:43;;;;;;;26.00;20.80;;;;;;;19.97;100.00;101525.16;6342565;23;20013;-67
2022/05/19 01:49:31;;;;;;;23.50;20.80;;;;;;;19.89;100.00;101529.50;6339674;23;20010;-67
2022/05/19 01:52:16;;;;;;;23.98;19.73;;;;;;;19.92;100.00;101529.13;6316921;23;20021;-67
2022/05/19 01:54:50;;;;;;;25.17;22.17;;;;;;;19.84;100.00;101523.84;6340812;23;20006;-67
2022/05/19 01:57:28;;;;;;;25.13;22.40;;;;;;;19.86;100.00;101519.22;6343036;23;20037;-68
2022/05/19 02:00:09;;;;;;;24.38;21.88;;;;;;;19.93;100.00;101514.84;6341594;23;20279;-66
2022/05/19 02:03:09;;;;;;;26.65;21.33;;;;;;;19.99;100.00;101518.63;6341331;23;20519;-67
2022/05/19 02:05:47;;;;;;;25.60;21.88;;;;;;;19.82;100.00;101514.41;6371210;23;20030;-67
2022/05/19 02:08:33;;;;;;;26.65;21.70;;;;;;;19.89;100.00;101499.44;6371521;23;20025;-68
2022/05/19 02:11:10;;;;;;;23.15;20.77;;;;;;;19.83;100.00;101510.75;6372291;23;20001;-68
2022/05/19 02:13:41;;;;;;;25.55;22.10;;;;;;;19.80;100.00;101509.25;6372379;23;20025;-68
2022/05/19 02:16:15;;;;;;;24.33;21.73;;;;;;;19.80;100.00;101511.91;6372871;23;20002;-68
2022/05/19 02:18:48;;;;;;;22.70;20.15;;;;;;;19.81;100.00;101512.75;6371949;23;20071;-67
2022/05/19 02:21:19;;;;;;;23.33;20.95;;;;;;;19.81;100.00;101515.41;6371967;23;20084;-68
2022/05/19 02:23:50;;;;;;;24.30;19.80;;;;;;;19.84;100.00;101512.41;6372849;23;20092;-69
2022/05/19 02:26:22;;;;;;;25.77;20.60;;;;;;;19.86;100.00;101521.03;6373232;23;20001;-67
2022/05/19 02:28:58;;;;;;;22.60;19.27;;;;;;;19.93;100.00;101514.03;6371579;23;20009;-68
2022/05/19 02:31:30;;;;;;;21.77;19.45;;;;;;;19.89;100.00;101515.38;6373286;23;20052;-67
2022/05/19 02:34:01;;;;;;;22.30;18.57;;;;;;;19.96;100.00;101518.97;6371985;23;20270;-68
2022/05/19 02:36:32;;;;;;;22.73;19.57;;;;;;;19.99;100.00;101509.81;6372059;23;20010;-67
2022/05/19 02:39:04;;;;;;;19.93;17.83;;;;;;;20.01;100.00;101513.97;6372789;23;20524;-69
2022/05/19 02:41:37;;;;;;;20.67;18.53;;;;;;;20.07;100.00;101529.22;6372687;23;20445;-68
2022/05/19 02:44:08;;;;;;;22.15;18.10;;;;;;;20.10;100.00;101528.88;6371904;23;20080;-67
2022/05/19 02:46:39;;;;;;;20.10;17.80;;;;;;;20.05;100.00;101515.28;6372918;23;20041;-67
2022/05/19 02:49:10;;;;;;;21.57;19.27;;;;;;;20.16;100.00;101530.84;6371623;23;20052;-67
2022/05/19 02:51:42;;;;;;;19.70;17.60;;;;;;;20.12;100.00;101518.06;6372790;23;20009;-70
2022/05/19 02:54:13;;;;;;;19.53;17.17;;;;;;;20.25;100.00;101536.09;6371392;23;20010;-67
2022/05/19 02:56:44;;;;;;;20.93;17.10;;;;;;;20.24;100.00;101529.94;6372744;23;19998;-67
2022/05/19 02:59:16;;;;;;;17.20;14.97;;;;;;;20.29;100.00;101546.19;6371074;23;20018;-67
2022/05/19 03:01:47;;;;;;;18.60;15.33;;;;;;;20.34;100.00;101586.44;6372395;23;20002;-67
2022/05/19 03:04:19;;;;;;;16.60;14.83;;;;;;;20.33;100.00;101661.94;6355519;23;20025;-67
2022/05/19 03:06:50;;;;;;;22.27;19.87;;;;;;;20.24;100.00;101656.84;6341984;23;20397;-68
2022/05/19 03:09:21;;;;;;;22.07;19.87;;;;;;;20.16;100.00;101633.78;6314947;23;20089;-67
2022/05/19 03:11:53;;;;;;;21.23;18.93;;;;;;;20.29;100.00;101660.63;6342319;23;20025;-69
2022/05/19 03:14:24;;;;;;;21.27;16.73;;;;;;;20.39;100.00;101681.72;6341774;23;20501;-67
2022/05/19 03:16:55;;;;;;;17.93;16.10;;;;;;;20.54;100.00;101681.84;6341876;23;20018;-71
2022/05/19 03:19:27;;;;;;;18.13;15.37;;;;;;;20.60;100.00;101681.13;6340494;23;20006;-68
2022/05/19 03:21:58;;;;;;;18.53;15.03;;;;;;;20.62;100.00;101687.13;6342149;23;20081;-67
2022/05/19 03:24:30;;;;;;;16.77;14.90;;;;;;;20.63;100.00;101692.25;6341425;23;20034;-71
2022/05/19 03:27:02;;;;;;;21.17;15.32;;;;;;;20.65;100.00;101682.25;6342397;23;20339;-67
2022/05/19 03:29:34;;;;;;;17.27;15.32;;;;;;;20.67;99.94;101683.91;6341249;23;20006;-67
2022/05/19 03:32:06;;;;;;;16.17;14.00;;;;;;;20.69;100.00;101685.41;6342306;23;20006;-68
2022/05/19 03:34:37;;;;;;;20.90;15.67;;;;;;;20.65;100.00;101686.78;6341246;23;20010;-67
2022/05/19 03:37:09;;;;;;;19.30;15.93;;;;;;;20.62;100.00;101687.94;6341576;23;20760;-67
2022/05/19 03:39:40;;;;;;;17.20;15.43;;;;;;;20.59;100.00;101684.78;6342519;23;20146;-67
2022/05/19 03:42:12;;;;;;;20.23;16.07;;;;;;;20.58;100.00;101686.63;6341514;23;20439;-67
2022/05/19 03:44:43;;;;;;;18.80;15.67;;;;;;;20.54;100.00;101700.47;6341788;23;20011;-67
2022/05/19 03:47:14;;;;;;;17.67;15.70;;;;;;;20.54;100.00;101674.69;6341939;23;20007;-67
2022/05/19 03:49:46;;;;;;;16.83;15.13;;;;;;;20.57;100.00;101676.13;6341881;23;20192;-70
2022/05/19 03:52:17;;;;;;;18.07;14.20;;;;;;;20.49;100.00;101668.19;6342367;23;20006;-67
2022/05/19 03:54:48;;;;;;;16.17;14.43;;;;;;;20.48;100.00;101671.84;6341183;23;20006;-67
2022/05/19 03:57:21;;;;;;;18.70;16.70;;;;;;;20.51;100.00;101687.50;6316467;23;20045;-67
2022/05/19 03:59:52;;;;;;;15.80;13.98;;;;;;;20.37;100.00;101703.16;6315759;23;20006;-67
2022/05/19 04:02:23;;;;;;;21.80;15.77;;;;;;;20.38;100.00;101704.84;6339349;23;20517;-68
2022/05/19 04:04:55;;;;;;;19.63;15.23;;;;;;;20.36;100.00;101706.84;6340678;23;20010;-69
2022/05/19 04:07:26;;;;;;;16.67;14.97;;;;;;;20.32;100.00;101697.53;6340137;23;20022;-67
2022/05/19 04:09:57;;;;;;;19.33;15.50;;;;;;;20.34;100.00;101705.34;6340907;23;20085;-69
2022/05/19 04:12:29;;;;;;;18.40;16.40;;;;;;;20.34;100.00;101700.88;6343093;23;20006;-67
2022/05/19 04:15:01;;;;;;;16.47;14.77;;;;;;;20.33;100.00;101698.38;6343066;23;20010;-67
2022/05/19 04:17:35;;;;;;;18.45;15.77;;;;;;;20.31;100.00;101703.06;6344019;23;20030;-67
2022/05/19 04:20:09;;;;;;;16.02;14.15;;;;;;;20.31;100.00;101706.53;6343451;23;20109;-67
2022/05/19 04:22:40;;;;;;;19.98;15.75;;;;;;;20.29;100.00;101708.53;6343876;23;20010;-67
2022/05/19 04:25:12;;;;;;;17.33;15.43;;;;;;;20.28;100.00;101708.72;6343344;23;20352;-67
2022/05/19 04:27:43;;;;;;;21.70;15.03;;;;;;;20.25;100.00;101701.91;6344527;23;20284;-67
2022/05/19 04:30:15;;;;;;;17.97;16.17;;;;;;;20.31;100.00;101705.72;6342549;23;20061;-67
2022/05/19 04:32:47;;;;;;;19.00;16.33;;;;;;;20.33;100.00;101695.72;6343704;23;20024;-69
2022/05/19 04:35:18;;;;;;;17.77;14.40;;;;;;;20.33;100.00;101695.72;6343457;23;20032;-68
2022/05/19 04:37:50;;;;;;;15.83;14.13;;;;;;;20.31;100.00;101679.09;6343938;23;20434;-69
2022/05/19 04:40:21;;;;;;;17.33;15.20;;;;;;;20.37;100.00;101689.84;6343698;23;20014;-67
2022/05/19 04:42:55;;;;;;;21.07;15.20;;;;;;;20.42;100.00;101708.81;6343272;23;20073;-68
2022/05/19 04:45:27;;;;;;;17.30;15.48;;;;;;;20.36;100.00;101693.53;6342592;23;20142;-70
2022/05/19 04:47:58;;;;;;;21.90;15.53;;;;;;;20.33;100.00;101690.38;6317009;23;20062;-71
2022/05/19 04:50:30;;;;;;;20.83;14.63;;;;;;;20.38;100.00;101690.69;6342708;23;20003;-66
2022/05/19 04:53:01;;;;;;;19.40;14.67;;;;;;;20.39;100.00;101679.06;6341710;23;20002;-67
2022/05/19 04:55:35;;;;;;;18.60;14.80;;;;;;;20.42;100.00;101678.72;6342294;23;20070;-67
2022/05/19 04:58:07;;;;;;;17.60;14.27;;;;;;;20.41;100.00;101685.84;6342093;23;20015;-67
2022/05/19 05:00:39;;;;;;;16.13;14.07;;;;;;;20.50;100.00;101699.16;6342478;23;20082;-66
2022/05/19 05:03:10;;;;;;;16.33;13.07;;;;;;;20.47;100.00;101692.31;6342358;23;20022;-67
2022/05/19 05:05:42;;;;;;;20.07;14.40;;;;;;;20.33;100.00;101655.78;6412482;23;20009;-70
2022/05/19 05:08:13;;;;;;;18.23;14.67;;;;;;;20.51;100.00;101685.66;6429118;23;20067;-70
2022/05/19 05:10:44;;;;;;;17.47;13.20;;;;;;;20.47;100.00;101684.34;6436236;23;20448;-70
2022/05/19 05:13:16;;;;;;;16.47;12.40;;;;;;;20.44;100.00;101674.03;6435393;23;20076;-70
2022/05/19 05:15:47;;;;;;;14.13;11.43;;;;;;;20.44;100.00;101671.38;6437822;23;20012;-68
2022/05/19 05:18:19;;;;;;;17.47;12.33;;;;;;;20.41;100.00;101667.22;6467482;23;20005;-68
2022/05/19 05:20:50;;;;;;;19.23;11.50;;;;;;;20.36;100.00;101658.09;6467379;23;20015;-69
2022/05/19 05:23:21;;;;;;;17.03;12.10;;;;;;;20.35;100.00;101637.84;6466512;23;20015;-69
2022/05/19 05:25:52;;;;;;;14.50;12.10;;;;;;;20.28;100.00;101634.22;6456580;23;20012;-69
2022/05/19 05:28:24;;;;;;;17.00;12.13;;;;;;;20.22;100.00;101619.75;6462165;23;20012;-69
2022/05/19 05:30:55;;;;;;;17.37;12.57;;;;;;;20.16;100.00;101620.47;6466015;23;20150;-69
2022/05/19 05:33:27;;;;;;;16.93;11.97;;;;;;;20.13;100.00;101624.28;6439786;23;20019;-69
2022/05/19 05:35:58;;;;;;;15.60;11.80;;;;;;;20.10;100.00;101608.69;6466498;23;20031;-70
2022/05/19 05:38:30;;;;;;;13.80;11.23;;;;;;;20.02;100.00;101590.09;6462578;23;20011;-70
2022/05/19 05:41:03;;;;;;;15.57;11.77;;;;;;;19.96;100.00;101564.19;6461808;23;20392;-69
2022/05/19 05:43:35;;;;;;;14.20;11.38;;;;;;;19.89;100.00;101573.88;6428659;23;20459;-69
2022/05/19 05:46:10;;;;;;;11.77;10.52;;;;;;;19.82;100.00;101552.47;6461624;23;20219;-69
2022/05/19 05:48:43;;;;;;;11.90;10.73;;;;;;;19.86;100.00;101568.91;6457644;23;20004;-69
2022/05/19 05:51:19;;;;;;;13.50;10.75;;;;;;;19.85;100.00;101580.53;6462469;23;20001;-70
2022/05/19 05:53:50;;;;;;;12.63;10.73;;;;;;;19.90;100.00;101586.19;6465512;23;20348;-70
2022/05/19 05:56:22;;;;;;;11.37;10.27;;;;;;;19.91;100.00;101577.19;6464760;23;20406;-70
2022/05/19 05:58:53;;;;;;;11.70;10.20;;;;;;;19.93;100.00;101570.69;6465581;23;20012;-70
2022/05/19 06:01:25;;;;;;;12.07;10.37;;;;;;;19.96;100.00;101561.53;6464991;23;20043;-70
2022/05/19 06:03:56;;;;;;;11.17;9.80;;;;;;;19.88;100.00;101553.59;6461176;23;20072;-71
2022/05/19 06:06:27;;;;;;;10.73;9.73;;;;;;;19.85;100.00;101560.13;6465569;23;20031;-70
2022/05/19 06:08:59;;;;;;;11.97;10.20;;;;;;;19.85;100.00;101580.53;6464003;23;20001;-70
2022/05/19 06:11:30;;;;;;;15.17;10.67;;;;;;;19.89;100.00;101585.34;6464176;23;20015;-70
2022/05/19 06:14:02;;;;;;;14.47;11.70;;;;;;;19.92;100.00;101586.81;6463997;23;20011;-71
2022/05/19 06:16:33;;;;;;;14.60;12.00;;;;;;;19.92;100.00;101594.78;6462695;23;20770;-70
2022/05/19 06:19:04;;;;;;;15.60;12.63;;;;;;;19.96;100.00;101596.09;6464173;23;20035;-71
2022/05/19 06:21:39;;;;;;;14.77;13.27;;;;;;;19.99;100.00;101595.75;6465761;23;20503;-71
2022/05/19 06:24:10;;;;;;;14.05;12.45;;;;;;;20.02;100.00;101583.97;6463503;23;20005;-70
2022/05/19 06:26:41;;;;;;;13.23;11.93;;;;;;;20.13;100.00;101589.72;6461989;23;20000;-71
2022/05/19 06:29:13;;;;;;;15.30;13.77;;;;;;;20.24;100.00;101585.00;6464418;22;20027;-71
2022/05/19 06:31:44;;;;;;;15.83;14.23;;;;;;;20.25;100.00;101584.00;6462677;23;20008;-71
2022/05/19 06:34:16;;;;;;;15.40;13.80;;;;;;;20.32;100.00;101582.28;6464896;23;20012;-71
2022/05/19 06:36:48;;;;;;;15.37;13.40;;;;;;;20.34;100.00;101591.75;6462251;23;20339;-71
2022/05/19 06:39:19;;;;;;;14.53;13.13;;;;;;;20.46;100.00;101584.19;6435304;23;20009;-71
2022/05/19 06:42:02;;;;;;;14.27;12.97;;;;;;;20.49;100.00;101580.34;6459237;23;20000;-70
2022/05/19 06:44:37;;;;;;;15.77;13.40;;;;;;;20.51;100.00;101573.88;6435655;23;20348;-71
2022/05/19 06:47:14;;;;;;;14.23;12.73;;;;;;;20.53;100.00;101569.22;6460563;23;20386;-70
2022/05/19 06:49:48;;;;;;;14.95;13.25;;;;;;;20.51;100.00;101559.72;6464086;23;20004;-70
2022/05/19 06:52:22;;;;;;;14.18;12.18;;;;;;;20.57;100.00;101567.00;6464737;23;20008;-70
2022/05/19 06:54:56;;;;;;;14.75;12.98;;;;;;;20.62;100.00;101581.44;6461768;23;20456;-71
2022/05/19 06:57:30;;;;;;;16.92;13.15;;;;;;;20.61;100.00;101566.47;6465572;22;20016;-71
2022/05/19 07:00:01;;;;;;;14.68;13.07;;;;;;;20.67;100.00;101564.09;6465763;23;20008;-70
2022/05/19 07:02:33;;;;;;;14.97;13.47;;;;;;;20.78;100.00;101569.81;6461707;23;20137;-70
2022/05/19 07:05:05;;;;;;;16.10;13.60;;;;;;;20.78;100.00;101563.66;6461605;22;20017;-70
2022/05/19 07:07:36;;;;;;;14.53;12.97;;;;;;;20.82;100.00;101552.47;6463188;23;20016;-71
2022/05/19 07:10:09;;;;;;;16.27;12.80;;;;;;;20.80;100.00;101561.66;6436538;23;20116;-70
2022/05/19 07:12:40;;;;;;;;;;;;;;;21.33;100.00;101546.53;6464007;23;20004;-70
2022/05/19 07:15:14;;;;;;;13.83;11.93;;;;;;;21.00;100.00;101546.00;6464272;23;19911;-69
2022/05/19 07:17:46;;;;;;;13.80;12.40;;;;;;;21.00;100.00;101548.66;6461362;23;20009;-68
2022/05/19 07:23:11;;;;;;;12.40;11.30;;;;;;;21.11;100.00;101546.38;6463184;23;20395;-69
2022/05/19 07:25:43;;;;;;;13.82;12.00;;;;;;;21.13;100.00;101536.34;6464042;23;20070;-69
2022/05/19 07:28:15;;;;;;;14.53;11.93;;;;;;;21.21;100.00;101534.59;6462538;23;20358;-68
2022/05/19 07:30:47;;;;;;;13.10;11.63;;;;;;;21.31;100.00;101532.50;6460055;23;20683;-70
2022/05/19 07:33:18;;;;;;;14.77;13.27;;;;;;;21.41;100.00;101538.44;6459125;23;20083;-69
2022/05/19 07:35:50;;;;;;;13.87;12.33;;;;;;;21.50;100.00;101545.31;6462466;23;20015;-70
2022/05/19 07:38:22;;;;;;;13.82;12.43;;;;;;;21.62;100.00;101556.31;6464140;23;20012;-70
2022/05/19 07:40:54;;;;;;;16.90;13.10;;;;;;;21.79;100.00;101555.13;6463790;23;20427;-70
2022/05/19 07:43:37;;;;;;;13.93;12.35;;;;;;;22.04;100.00;101576.94;6465066;23;20335;-70
2022/05/19 07:46:09;;;;;;;14.10;12.63;;;;;;;22.15;100.00;101577.50;6465180;23;20015;-70
2022/05/19 07:48:40;;;;;;;13.97;12.63;;;;;;;22.24;100.00;101565.72;6464544;23;20008;-70
2022/05/19 07:51:12;;;;;;;14.77;12.33;;;;;;;22.36;100.00;101576.72;6466925;22;20078;-70
2022/05/19 07:53:43;;;;;;;13.17;11.87;;;;;;;22.50;100.00;101573.13;6466446;23;20004;-70
2022/05/19 07:56:15;;;;;;;14.30;12.80;;;;;;;22.58;100.00;101565.03;6467031;23;20015;-70
2022/05/19 07:58:47;;;;;;;14.02;12.35;;;;;;;22.88;100.00;101565.69;6466438;23;20028;-70
2022/05/19 08:01:18;;;;;;;14.87;12.30;;;;;;;23.07;100.00;101561.53;6465607;23;20011;-70
2022/05/19 08:03:50;;;;;;;11.83;10.73;;;;;;;23.15;100.00;101556.03;6465031;23;20004;-70
2022/05/19 08:06:21;;;;;;;11.87;10.60;;;;;;;23.45;100.00;101559.31;6467303;23;20008;-70
2022/05/19 08:08:53;;;;;;;14.17;11.13;;;;;;;23.50;97.19;101561.38;6466376;23;20077;-70
2022/05/19 08:11:26;;;;;;;12.27;10.97;;;;;;;23.64;95.99;101562.25;6465968;23;20035;-70
2022/05/19 08:16:47;;;;;;;10.68;8.98;;;;;;;23.92;94.20;101568.38;6463730;23;20356;-70
2022/05/19 08:19:18;;;;;;;12.07;10.00;;;;;;;23.89;89.01;101563.41;6463342;22;20013;-70
2022/05/19 08:21:50;;;;;;;12.40;9.17;;;;;;;24.15;89.31;101560.00;6464954;23;20005;-70
2022/05/19 08:24:24;;;;;;;11.03;9.20;;;;;;;24.35;88.77;101560.03;6461137;23;20009;-70
2022/05/19 08:26:55;;;;;;;10.48;9.20;;;;;;;24.45;88.09;101562.34;6463637;23;20405;-70
2022/05/19 08:29:27;;;;;;;10.55;9.05;;;;;;;24.70;84.93;101557.19;6467232;23;20013;-70
2022/05/19 08:31:58;;;;;;;11.97;8.47;;;;;;;24.92;85.73;101555.13;6466091;23;20004;-70
2022/05/19 08:34:30;;;;;;;8.83;7.53;;;;;;;24.84;74.73;101553.50;6464719;23;20016;-70
2022/05/19 08:37:02;;;;;;;11.83;7.20;;;;;;;25.01;75.38;101548.53;6466865;23;20001;-70
2022/05/19 08:39:33;;;;;;;8.53;7.17;;;;;;;25.04;74.20;101540.09;6467269;23;20313;-70
2022/05/19 08:42:07;;;;;;;8.33;7.00;;;;;;;25.30;72.17;101544.56;6466285;23;20412;-70
2022/05/19 08:44:42;;;;;;;9.00;7.10;;;;;;;25.44;70.93;101543.50;6466169;23;20008;-70
2022/05/19 08:47:17;;;;;;;9.98;7.18;;;;;;;25.65;71.39;101538.91;6463334;23;20009;-70
2022/05/19 08:49:54;;;;;;;7.45;6.68;;;;;;;25.83;71.29;101530.97;6466767;23;20000;-70
2022/05/19 08:52:34;;;;;;;8.85;6.13;;;;;;;25.92;68.17;101528.88;6466358;23;20009;-70
2022/05/19 08:55:06;;;;;;;8.20;6.57;;;;;;;25.84;66.08;101527.28;6465738;23;20375;-70
2022/05/19 08:57:44;;;;;;;10.75;6.88;;;;;;;25.98;67.06;101519.94;6464818;23;20092;-70
2022/05/19 09:00:22;;;;;;;8.40;6.45;;;;;;;26.08;66.93;101524.88;6465959;23;20091;-70
2022/05/19 09:03:08;;;;;;;9.38;6.85;;;;;;;26.15;65.62;101520.28;6465664;23;20028;-71
2022/05/19 09:06:12;;;;;;;9.82;6.18;;;;;;;26.29;65.49;101521.00;6466354;23;20507;-70
2022/05/19 09:08:49;;;;;;;6.90;6.20;;;;;;;26.25;66.96;101523.28;6463401;23;20383;-70
2022/05/19 09:11:25;;;;;;;9.98;5.82;;;;;;;26.25;64.28;101522.47;6466497;23;20007;-70
2022/05/19 09:14:16;;;;;;;6.28;5.00;;;;;;;26.84;67.11;101526.56;6465413;23;20415;-70
2022/05/19 09:16:49;;;;;;;10.27;5.78;;;;;;;26.98;64.74;101519.19;6464776;23;20015;-69
2022/05/19 09:19:33;;;;;;;10.13;5.97;;;;;;;27.18;62.81;101506.38;6465893;23;20005;-68
2022/05/19 09:22:12;;;;;;;8.15;5.40;;;;;;;27.29;62.61;101513.72;6464480;23;20008;-68
2022/05/19 09:24:46;;;;;;;9.23;5.10;;;;;;;27.27;62.34;101502.34;6465128;23;20004;-71
2022/05/19 09:27:19;;;;;;;8.95;5.15;;;;;;;27.49;63.88;101509.94;6466926;23;20205;-69
2022/05/19 09:29:56;;;;;;;9.52;5.40;;;;;;;27.46;63.64;101513.09;6438072;23;20062;-69
2022/05/19 09:32:29;;;;;;;9.90;5.60;;;;;;;27.33;62.53;101512.22;6463069;23;20094;-69
2022/05/19 09:35:24;;;;;;;9.18;5.85;;;;;;;27.56;63.37;101514.19;6465717;23;20430;-69
2022/05/19 09:38:17;;;;;;;12.25;6.55;;;;;;;27.55;62.37;101517.13;6460397;23;20400;-69
2022/05/19 09:40:49;;;;;;;8.85;5.50;;;;;;;27.38;60.84;101506.13;6464529;23;20020;-69
2022/05/19 09:43:32;;;;;;;9.52;6.13;;;;;;;27.21;61.94;101516.69;6465594;23;20011;-69
2022/05/19 09:46:09;;;;;;;11.60;5.85;;;;;;;27.28;62.15;101516.63;6465268;23;20018;-69
2022/05/19 09:48:45;;;;;;;7.88;5.35;;;;;;;27.16;61.36;101514.69;6462601;23;20015;-69
2022/05/19 09:51:19;;;;;;;10.55;6.03;;;;;;;27.10;61.66;101512.84;6464027;23;20080;-69
2022/05/19 09:53:57;;;;;;;7.90;5.10;;;;;;;27.19;63.54;101504.50;6463146;23;20054;-69
2022/05/19 09:56:37;;;;;;;7.38;5.15;;;;;;;27.24;62.97;101502.81;6466102;23;20448;-69
2022/05/19 09:59:55;;;;;;;6.60;4.90;;;;;;;27.47;62.12;101499.41;6462992;23;20079;-69
2022/05/19 10:02:32;;;;;;;6.28;4.70;;;;;;;27.42;61.43;101497.38;6457891;23;20519;-69
2022/05/19 10:05:19;;;;;;;7.53;4.57;;;;;;;27.70;62.91;101493.31;6464273;22;20054;-70
2022/05/19 10:07:57;;;;;;;9.77;4.70;;;;;;;27.80;60.81;101480.13;6436834;23;20044;-69
2022/05/19 10:10:30;;;;;;;8.15;4.60;;;;;;;27.79;60.03;101469.59;6462556;23;20103;-69
2022/05/19 10:13:14;;;;;;;5.85;3.95;;;;;;;28.12;59.78;101456.47;6464969;23;20035;-68
2022/05/19 10:15:58;;;;;;;7.95;4.47;;;;;;;28.17;54.30;101452.25;6465345;23;20008;-68
2022/05/19 10:18:52;;;;;;;6.00;4.03;;;;;;;28.47;55.62;101444.09;6464620;23;20005;-71
2022/05/19 10:21:55;;;;;;;8.23;3.92;;;;;;;28.68;53.94;101457.00;6463255;23;20009;-70
2022/05/19 10:24:51;;;;;;;6.82;3.45;;;;;;;28.71;51.36;101456.50;6465220;23;20008;-69
2022/05/19 10:31:04;;;;;;;6.20;3.47;;;;;;;28.99;50.97;101446.88;6464042;23;20005;-69
2022/05/19 10:33:53;;;;;;;7.07;3.53;;;;;;;28.83;50.94;101441.16;6417422;23;20020;-69
2022/05/19 10:37:02;;;;;;;5.20;3.38;;;;;;;29.28;50.39;101440.47;6464572;23;20424;-71
2022/05/19 10:40:07;;;;;;;8.77;3.90;;;;;;;29.14;48.22;101452.59;6465871;23;20016;-70
2022/05/19 10:42:48;;;;;;;6.75;3.88;;;;;;;29.32;49.67;101455.13;6463870;23;20008;-70
2022/05/19 10:45:33;;;;;;;6.80;3.67;;;;;;;29.51;50.76;101461.16;6462340;23;20062;-70
2022/05/19 10:48:33;;;;;;;5.57;3.60;;;;;;;29.33;47.26;101451.38;6432261;23;20326;-69
2022/05/19 10:51:15;;;;;;;5.78;3.40;;;;;;;29.42;48.34;101450.97;6465249;23;20034;-70
2022/05/19 10:53:55;;;;;;;6.10;3.20;;;;;;;29.36;48.01;101446.53;6465589;23;20011;-70
2022/05/19 10:56:47;;;;;;;5.95;3.17;;;;;;;29.78;48.90;101444.38;6464547;23;20240;-69
2022/05/19 10:59:26;;;;;;;6.55;2.70;;;;;;;29.69;46.22;101446.63;6465383;23;20012;-70
2022/05/19 11:02:21;;;;;;;5.38;3.33;;;;;;;29.57;46.75;101440.47;6463419;23;20020;-69
2022/05/19 11:05:34;;;;;;;7.57;3.00;;;;;;;29.55;46.85;101442.59;6427040;23;20036;-68
2022/05/19 11:08:27;;;;;;;9.05;3.17;;;;;;;29.29;48.14;101439.41;6394023;23;20318;-69
2022/05/19 11:11:36;;;;;;;5.13;3.10;;;;;;;29.25;49.00;101440.13;6402035;23;20010;-69
2022/05/19 11:14:36;;;;;;;4.82;3.00;;;;;;;29.18;48.18;101434.88;6400813;23;20016;-70
2022/05/19 11:17:17;;;;;;;4.18;2.78;;;;;;;28.98;47.92;101440.69;6400581;23;20016;-70
2022/05/19 11:20:06;;;;;;;5.53;3.20;;;;;;;28.80;49.29;101443.50;6399925;23;20278;-70
2022/05/19 11:22:39;;;;;;;3.92;2.55;;;;;;;28.53;49.37;101445.88;6401176;23;20008;-70
2022/05/19 11:28:25;;;;;;;6.18;3.53;;;;;;;28.32;49.57;101475.00;6396350;23;20021;-70
2022/05/19 11:31:01;;;;;;;6.68;3.00;;;;;;;28.18;51.42;101487.03;6400250;23;20002;-70
2022/05/19 11:33:39;;;;;;;10.70;3.55;;;;;;;28.09;51.03;101491.13;6398028;23;20009;-70
2022/05/19 11:36:43;;;;;;;6.80;3.45;;;;;;;28.21;51.40;101499.22;6401566;23;20013;-70
2022/05/19 11:39:24;;;;;;;14.75;6.10;;;;;;;27.87;52.65;101571.59;6401244;23;20016;-74
2022/05/19 11:42:02;;;;;;;193.63;16.98;;;;;;;25.89;60.92;101770.94;6400289;23;20084;-69
2022/05/19 11:44:37;;;;;;;41.20;5.70;;;;;;;23.58;100.00;101793.94;6401583;23;20417;-71
2022/05/19 11:55:12;;;;;;;22.70;4.63;;;;;;;21.92;100.00;101817.75;6401139;23;20001;-70
2022/05/19 11:56:54;;;;;;;4.85;1.50;;;;;;;19.69;100.00;101732.97;6401508;23;20010;-72
2022/05/19 11:59:26;;;;;;;4.60;1.27;;;;;;;19.69;100.00;101751.56;6401801;23;20318;-71
2022/05/19 12:01:58;;;;;;;5.00;1.13;;;;;;;19.17;100.00;101741.28;6401968;23;20345;-71
2022/05/19 12:04:31;;;;;;;5.23;1.57;;;;;;;19.02;100.00;101711.03;6407829;23;20016;-70
2022/05/19 12:07:11;;;;;;;5.30;1.35;;;;;;;19.20;100.00;101717.00;6431562;23;20425;-72
2022/05/19 12:09:46;;;;;;;2.60;1.00;;;;;;;18.77;100.00;101708.34;6433918;23;20076;-69